Item Display Status Humidity-temperature Sensor

Elevation Above Sea Level: 3 m

 

Deployed Sensor

  • Serial Number: 20256967
  • NDBC Property Number: 42274
  • Start Date: 12/6/2018 (14:21:34 Z)
  • End Date: Currently Active
Relative Humidity [%]     6 entries per hour
Showing data from 11/12/2019 (07:00:00 Z) to 11/11/2019 (00:00:01 Z)
Previous Next [ Day | 3-Days | 7-Days ]
First Last
Prev [ Day | 3-Days | 7-Days ] Next
First Last

Start Time:     :
End Time:     :     
Time (in GMT) :00 :50 :40 :30 :20 :10
Previous Next [ Day | 3-Days | 7-Days ]
First Last
Prev [ Day | 3-Days | 7-Days ] Next
First Last


123 => good data
MM => data is determined as missing
-- => data not received/configured
Back to Top Back to Top
11/12/2019 07:00 to 6:10 83.55 84.05 83.87 82.90 82.49 80.47
11/12/2019 06:00 to 5:10 79.56 79.38 82.29 84.56 84.84 84.60
11/12/2019 05:00 to 4:10 84.54 84.23 84.74 87.31 86.70 85.41
11/12/2019 04:00 to 3:10 85.85 85.35 84.23 84.46 85.83 84.15
11/12/2019 03:00 to 2:10 84.68 84.58 84.64 85.06 84.42 83.45
11/12/2019 02:00 to 1:10 82.43 82.03 81.83 82.96 84.09 83.14
11/12/2019 01:00 to 0:10 83.20 83.45 85.69 86.34 85.65 86.40
11/12/2019 00:00 to 23:10 85.69 85.43 86.66 86.76 89.05 87.16
11/11/2019 23:00 to 22:10 84.78 84.40 84.78 81.52 76.92 76.77
11/11/2019 22:00 to 21:10 76.98 77.06 75.48 75.70 75.95 79.18
11/11/2019 21:00 to 20:10 83.36 85.77 88.64 89.93 85.77 87.41
11/11/2019 20:00 to 19:10 84.78 85.04 86.86 87.25 88.12 86.50
11/11/2019 19:00 to 18:10 82.64 81.61 80.57 79.44 79.48 83.12
11/11/2019 18:00 to 17:10 89.27 92.79 91.67 83.57 83.06 84.05
11/11/2019 17:00 to 16:10 85.12 86.40 87.97 88.78 87.59 82.15
11/11/2019 16:00 to 15:10 81.83 83.10 84.29 83.63 82.88 82.31
11/11/2019 15:00 to 14:10 81.32 80.11 83.69 84.86 84.38 87.35
11/11/2019 14:00 to 13:10 85.79 83.55 79.28 77.00 77.46 79.40
11/11/2019 13:00 to 12:10 81.81 81.63 82.47 81.44 81.73 80.90
11/11/2019 12:00 to 11:10 80.05 81.16 82.47 82.15 82.64 83.06
11/11/2019 11:00 to 10:10 82.92 82.54 84.07 84.27 84.84 84.60
11/11/2019 10:00 to 9:10 84.80 84.37 84.17 83.87 83.87 83.10
11/11/2019 09:00 to 8:10 84.35 83.45 84.33 84.37 83.69 82.88
11/11/2019 08:00 to 7:10 82.78 82.29 82.27 82.29 81.52 80.45
11/11/2019 07:00 to 6:10 79.28 81.04 80.13 81.18 81.59 82.01
11/11/2019 06:00 to 5:10 81.12 81.52 82.03 81.91 80.39 79.26
11/11/2019 05:00 to 4:10 79.00 81.16 81.32 81.02 81.24 81.08
11/11/2019 04:00 to 3:10 80.82 81.00 84.48 83.18 83.55 84.01
11/11/2019 03:00 to 2:10 84.11 84.42 84.01 83.49 83.77 84.82
11/11/2019 02:00 to 1:10 85.95 86.56 85.43 85.93 87.91 89.39
11/11/2019 01:00 to 0:10 85.69 84.13 82.98 82.15 82.58 82.05

 

 

 

Air Temperature [°C]     6 entries per hour
Showing data from 11/12/2019 (07:00:00 Z) to 11/11/2019 (00:00:01 Z)
Previous Next [ Day | 3-Days | 7-Days ]
First Last
Prev [ Day | 3-Days | 7-Days ] Next
First Last

Start Time:     :
End Time:     :     
Time (in GMT) :00 :50 :40 :30 :20 :10
Previous Next [ Day | 3-Days | 7-Days ]
First Last
Prev [ Day | 3-Days | 7-Days ] Next
First Last


123 => good data
MM => data is determined as missing
-- => data not received/configured
Back to Top Back to Top
11/12/2019 07:00 to 6:10 24.25 24.22 24.39 24.35 24.34 24.50
11/12/2019 06:00 to 5:10 24.59 24.64 24.24 24.31 24.26 24.12
11/12/2019 05:00 to 4:10 24.17 24.31 23.96 23.61 24.11 24.08
11/12/2019 04:00 to 3:10 24.37 24.26 24.39 24.16 24.38 24.32
11/12/2019 03:00 to 2:10 24.36 24.26 24.35 24.25 24.55 24.48
11/12/2019 02:00 to 1:10 24.37 24.52 24.31 24.40 24.32 24.39
11/12/2019 01:00 to 0:10 24.39 24.19 23.97 24.00 23.92 23.70
11/12/2019 00:00 to 23:10 23.88 23.82 23.75 23.80 23.65 23.91
11/11/2019 23:00 to 22:10 23.89 23.78 24.22 24.76 24.72 24.61
11/11/2019 22:00 to 21:10 24.77 24.84 24.83 24.70 24.60 24.40
11/11/2019 21:00 to 20:10 24.33 23.80 23.33 23.36 24.05 23.64
11/11/2019 20:00 to 19:10 23.88 23.68 23.74 23.41 23.45 23.76
11/11/2019 19:00 to 18:10 24.33 24.27 24.39 24.38 24.23 23.61
11/11/2019 18:00 to 17:10 22.94 22.94 23.39 24.13 23.99 24.11
11/11/2019 17:00 to 16:10 23.92 23.97 23.76 23.74 24.15 24.48
11/11/2019 16:00 to 15:10 24.57 24.47 24.43 24.45 24.28 24.40
11/11/2019 15:00 to 14:10 24.16 24.40 24.09 23.86 23.65 23.23
11/11/2019 14:00 to 13:10 23.18 23.69 24.25 24.25 24.30 24.20
11/11/2019 13:00 to 12:10 24.28 24.13 24.10 24.20 24.38 24.20
11/11/2019 12:00 to 11:10 24.13 24.07 24.04 24.03 23.94 23.98
11/11/2019 11:00 to 10:10 23.99 24.01 23.93 24.06 23.93 24.03
11/11/2019 10:00 to 9:10 24.04 23.92 23.95 23.93 24.01 23.89
11/11/2019 09:00 to 8:10 24.05 23.83 23.95 23.98 24.08 24.09
11/11/2019 08:00 to 7:10 24.12 24.23 24.15 24.10 24.14 24.29
11/11/2019 07:00 to 6:10 24.28 24.42 24.18 24.09 24.27 24.55
11/11/2019 06:00 to 5:10 24.39 24.55 24.43 24.51 24.40 24.66
11/11/2019 05:00 to 4:10 24.48 24.47 24.34 24.37 24.41 24.44
11/11/2019 04:00 to 3:10 24.48 24.40 24.36 24.40 24.29 24.31
11/11/2019 03:00 to 2:10 24.32 24.25 24.24 24.18 24.16 24.14
11/11/2019 02:00 to 1:10 24.07 24.08 24.09 23.87 23.87 23.80
11/11/2019 01:00 to 0:10 24.64 24.41 24.32 24.43 24.45 24.51